Rajiv Gandhi International Airport, Shamshabad

Jump to: basic info | weather | frequencies | runways | comments

Related pages: nearby airports | nearby navaids | notams | map

Basic information (top)

Codes: HYD VOHS
Location: lon 17.231318, lat 78.429855, elev 2,024 ft / 617 m msl
Status: large_airport
Scheduled airline service: yes
Links: Wikipedia Mobile

Weather (top)

Current conditions (rec'd 2014/09/30 20:40Z):

VOHS 302040Z VRB02KT 5000 HZ SCT015 SCT100 21/16 Q1014 NOSIG

Airport forecast (rec'd 2014/09/29 03:00Z):

TAF VOHS 300000Z 3003/3012 09010KT 6000 SCT015 SCT100 
      TEMPO 3009/3012 FEW030TCU

Frequencies (top)

Verify before use: may be inaccurate or out of date.

APP: 120.25 MHz ()
APP: 125.55 MHz ()
ATIS: 126.47 MHz ()
CONTROL-1: 120.95 MHz ()
CONTROL-2: 128.35 MHz ()
CONTROL-3: 129.7 MHz ()
DELIVERY: 121.62 MHz ()
GROUND: 121.62 MHz ()
SMC: 121.85 MHz ()
TOWER: 118.45 MHz ()

Runways (top)

09/27: 13,976 x 197 ft (4,260 x 60 m) — other (PAVED) — lighted

Latest comments (top)

re: abba entha peddha airport ooooo !: don't you know Hindi.... or English rubbish man [read]

abba entha peddha airport ooooo !: Na jeevetham lo entha peddha airport ... [read]

Info: Rajiv Gandhi International Airport ... [read]

Hyderabad's new airport: This airport opened on 23 March 2008, ... [read]

More... (top)

See also NOTAMs and nearby airports and navaids, or visit the Rajiv Gandhi International Airport, Shamshabad page at the main OurAirports website..